Mankato, Minnesota
Current Conditions -  °F | °C
As of 10:55 PM on Sunday 21 Dec 2014 (Local Time) from KMKT Reporting Station
Overcast Overcast  
Wind Chill: 28°   Ceiling: 400
Heat Index: 37°   Visibility: 5mi
Dew Point: 34°   Wind: 16mph
Humidity: 87%   Direction: 160°SSE
Pressure: 29.69"   Gusts: 21mph
Location:  44.17°N, 94°W
Report Text: KMKT 220455Z AUTO 16014G18KT 5SM OVC004 03/01 A2969 RMK AO1
Loading
Personal Weather Stations






























Interactive Weather Map New forecast layout! Learn more

10-Day Weather Forecast

Advertisements
Track Severe Weather on mobile